createdAt,value
2018-08-04T00:00:38.598Z,25.00
2018-08-04T00:03:12.911Z,24.90
2018-08-04T00:05:47.213Z,24.80
2018-08-04T00:08:21.565Z,24.80
2018-08-04T00:10:55.868Z,24.80
2018-08-04T00:13:30.179Z,24.70
2018-08-04T00:16:04.760Z,24.60
2018-08-04T00:18:38.911Z,24.70
2018-08-04T00:21:13.266Z,24.60
2018-08-04T00:23:47.655Z,24.50
2018-08-04T00:26:21.982Z,24.50
2018-08-04T00:28:56.601Z,24.40
2018-08-04T00:31:32.239Z,24.30
2018-08-04T00:34:06.541Z,24.20
2018-08-04T00:36:40.857Z,24.30
2018-08-04T00:39:15.149Z,24.10
2018-08-04T00:41:49.514Z,24.20
2018-08-04T00:44:23.782Z,24.00
2018-08-04T00:46:58.093Z,24.00
2018-08-04T00:49:32.314Z,24.00
2018-08-04T00:52:07.303Z,23.90
2018-08-04T00:54:41.552Z,23.80
2018-08-04T00:57:15.953Z,23.80
2018-08-04T00:59:50.254Z,23.80
2018-08-04T01:02:24.589Z,23.80
2018-08-04T01:04:58.830Z,23.80
2018-08-04T01:07:33.119Z,23.60
2018-08-04T01:10:07.426Z,23.50
2018-08-04T01:12:41.833Z,23.50
2018-08-04T01:15:16.210Z,23.50
2018-08-04T01:17:50.543Z,23.50
2018-08-04T01:20:24.921Z,23.50
2018-08-04T01:22:59.107Z,23.40
2018-08-04T01:25:33.394Z,23.50
2018-08-04T01:28:07.554Z,23.60
2018-08-04T01:30:41.931Z,23.40
2018-08-04T01:33:16.226Z,23.20
2018-08-04T01:35:50.487Z,23.10
2018-08-04T01:38:24.681Z,23.30
2018-08-04T01:40:59.010Z,23.20
2018-08-04T01:43:33.398Z,23.30
2018-08-04T01:46:07.662Z,23.10
2018-08-04T01:48:42.049Z,22.90
2018-08-04T01:51:16.314Z,22.90
2018-08-04T01:53:50.479Z,23.00
2018-08-04T01:56:24.925Z,22.80
2018-08-04T01:58:59.148Z,23.00
2018-08-04T02:01:33.518Z,22.90
2018-08-04T02:04:07.854Z,22.80
2018-08-04T02:06:42.238Z,22.70
2018-08-04T02:09:16.419Z,22.80
2018-08-04T02:11:50.618Z,22.80
2018-08-04T02:14:24.928Z,22.80
2018-08-04T02:16:59.266Z,22.50
2018-08-04T02:19:33.523Z,22.80
2018-08-04T02:22:07.834Z,22.70
2018-08-04T02:24:42.249Z,22.60
2018-08-04T02:27:16.466Z,22.70
2018-08-04T02:29:50.628Z,22.70
2018-08-04T02:32:24.990Z,22.70
2018-08-04T02:34:59.347Z,22.40
2018-08-04T02:37:33.474Z,22.60
2018-08-04T02:40:07.789Z,22.60
2018-08-04T02:42:41.910Z,22.50
2018-08-04T02:45:16.335Z,22.20
2018-08-04T02:47:50.595Z,22.00
2018-08-04T02:50:24.921Z,22.10
2018-08-04T02:52:59.204Z,22.40
2018-08-04T02:55:33.491Z,22.40
2018-08-04T02:58:07.784Z,22.00
2018-08-04T03:00:42.046Z,21.80
2018-08-04T03:03:16.242Z,21.90
2018-08-04T03:05:50.545Z,22.10
2018-08-04T03:08:24.891Z,22.20
2018-08-04T03:10:59.111Z,22.10
2018-08-04T03:13:33.258Z,21.80
2018-08-04T03:16:07.515Z,21.90
2018-08-04T03:18:41.810Z,22.10
2018-08-04T03:21:16.135Z,22.00
2018-08-04T03:23:50.482Z,21.90
2018-08-04T03:26:24.931Z,21.70
2018-08-04T03:28:59.298Z,21.70
2018-08-04T03:31:33.712Z,21.80
2018-08-04T03:34:07.934Z,21.90
2018-08-04T03:36:42.253Z,21.80
2018-08-04T03:41:50.698Z,21.40
2018-08-04T03:44:24.914Z,21.50
2018-08-04T03:46:59.194Z,21.40
2018-08-04T03:49:33.507Z,21.20
2018-08-04T03:52:07.778Z,21.40
2018-08-04T03:54:42.109Z,21.50
2018-08-04T03:57:16.379Z,21.50
2018-08-04T03:59:50.770Z,21.60
2018-08-04T04:02:25.075Z,21.40
2018-08-04T04:04:59.415Z,21.30
2018-08-04T04:07:33.714Z,21.20
2018-08-04T04:10:08.152Z,21.30
2018-08-04T04:12:42.654Z,21.40
2018-08-04T04:15:16.885Z,21.40
2018-08-04T04:17:51.170Z,21.30
2018-08-04T04:20:25.470Z,21.40
2018-08-04T04:22:59.754Z,21.40
2018-08-04T04:25:34.115Z,21.40
2018-08-04T04:28:08.346Z,21.50
2018-08-04T04:33:16.570Z,21.40
2018-08-04T04:35:50.769Z,21.30
2018-08-04T04:38:25.066Z,21.40
2018-08-04T04:40:59.268Z,21.40
2018-08-04T04:43:33.618Z,21.40
2018-08-04T04:46:07.980Z,21.60
2018-08-04T04:48:42.308Z,21.70
2018-08-04T04:51:16.499Z,21.70
2018-08-04T04:53:50.803Z,21.70
2018-08-04T04:56:25.106Z,21.80
2018-08-04T04:58:59.494Z,21.60
2018-08-04T05:01:33.958Z,21.40
2018-08-04T05:04:08.130Z,21.20
2018-08-04T05:06:42.502Z,21.30
2018-08-04T05:09:16.829Z,21.40
2018-08-04T05:11:51.049Z,21.40
2018-08-04T05:14:25.342Z,21.60
2018-08-04T05:16:59.894Z,21.70
2018-08-04T05:19:34.175Z,21.30
2018-08-04T05:22:08.568Z,21.20
2018-08-04T05:24:42.890Z,21.30
2018-08-04T05:27:17.022Z,21.50
2018-08-04T05:29:51.306Z,21.40
2018-08-04T05:32:25.546Z,21.10
2018-08-04T05:34:59.878Z,21.20
2018-08-04T05:37:34.039Z,21.20
2018-08-04T05:40:08.298Z,21.10
2018-08-04T05:42:42.641Z,21.30
2018-08-04T05:45:16.774Z,21.40
2018-08-04T05:47:51.074Z,21.60
2018-08-04T05:50:25.314Z,21.70
2018-08-04T05:52:59.576Z,21.80
2018-08-04T05:55:33.916Z,21.70
2018-08-04T05:58:08.559Z,21.70
2018-08-04T06:00:42.934Z,21.90
2018-08-04T06:03:17.208Z,21.20
2018-08-04T06:05:51.356Z,21.60
2018-08-04T06:08:25.493Z,21.30
2018-08-04T06:10:59.876Z,21.70
2018-08-04T06:13:35.494Z,22.00
2018-08-04T06:16:09.706Z,21.80
2018-08-04T06:18:43.906Z,21.90
2018-08-04T06:21:18.178Z,22.00
2018-08-04T06:23:52.554Z,22.10
2018-08-04T06:26:26.812Z,22.20
2018-08-04T06:29:02.150Z,22.00
2018-08-04T06:31:36.441Z,22.00
2018-08-04T06:34:10.705Z,22.10
2018-08-04T06:36:44.846Z,22.30
2018-08-04T06:39:19.082Z,22.20
2018-08-04T06:41:53.486Z,22.20
2018-08-04T06:44:27.746Z,22.30
2018-08-04T06:47:02.119Z,22.50
2018-08-04T06:49:36.448Z,22.50
2018-08-04T06:52:10.706Z,22.40
2018-08-04T06:54:44.993Z,22.60
2018-08-04T06:57:19.286Z,22.70
2018-08-04T06:59:53.525Z,22.90
2018-08-04T07:02:27.955Z,22.90
2018-08-04T07:05:02.109Z,22.90
2018-08-04T07:07:36.486Z,22.90
2018-08-04T07:10:10.783Z,23.00
2018-08-04T07:12:45.180Z,23.20
2018-08-04T07:15:19.638Z,23.20
2018-08-04T07:17:53.887Z,23.30
2018-08-04T07:20:28.174Z,23.40
2018-08-04T07:23:02.397Z,23.50
2018-08-04T07:25:36.605Z,23.70
2018-08-04T07:28:10.725Z,23.80
2018-08-04T07:30:45.026Z,23.90
2018-08-04T07:33:19.365Z,24.00
2018-08-04T07:35:53.955Z,24.10
2018-08-04T07:38:28.311Z,24.00
2018-08-04T07:41:02.539Z,24.20
2018-08-04T07:43:36.714Z,24.40
2018-08-04T07:46:10.971Z,24.50
2018-08-04T07:48:45.226Z,24.50
2018-08-04T07:51:19.498Z,24.70
2018-08-04T07:53:53.770Z,24.70
2018-08-04T07:56:28.117Z,24.70
2018-08-04T07:59:02.342Z,24.70
2018-08-04T08:01:36.663Z,24.70
2018-08-04T08:04:10.946Z,24.70
2018-08-04T08:06:45.333Z,24.80
2018-08-04T08:09:19.578Z,24.80
2018-08-04T08:11:53.818Z,24.90
2018-08-04T08:14:28.068Z,25.00
2018-08-04T08:17:02.403Z,24.90
2018-08-04T08:19:36.850Z,25.10
2018-08-04T08:22:11.019Z,25.20
2018-08-04T08:24:45.406Z,25.30
2018-08-04T08:27:19.530Z,25.40
2018-08-04T08:29:53.686Z,25.60
2018-08-04T08:32:28.032Z,25.50
2018-08-04T08:35:02.197Z,25.50
2018-08-04T08:40:10.694Z,25.50
2018-08-04T08:42:44.953Z,25.60
2018-08-04T08:45:19.273Z,25.60
2018-08-04T08:47:53.518Z,25.60
2018-08-04T08:50:27.828Z,25.90
2018-08-04T08:53:02.151Z,26.00
2018-08-04T08:55:36.344Z,26.20
2018-08-04T08:58:10.652Z,26.30
2018-08-04T09:00:45.023Z,26.30
2018-08-04T09:03:19.311Z,26.40
2018-08-04T09:05:53.575Z,26.60
2018-08-04T09:08:27.889Z,26.50
2018-08-04T09:11:02.237Z,26.70
2018-08-04T09:13:36.576Z,27.00
2018-08-04T09:16:10.984Z,27.00
2018-08-04T09:18:45.321Z,27.20
2018-08-04T09:21:19.585Z,27.10
2018-08-04T09:23:53.909Z,27.20
2018-08-04T09:26:28.134Z,27.40
2018-08-04T09:29:02.535Z,27.50
2018-08-04T09:34:11.387Z,27.60
2018-08-04T09:36:45.698Z,27.70
2018-08-04T09:39:19.851Z,27.80
2018-08-04T09:41:54.123Z,27.70
2018-08-04T09:44:28.415Z,27.90
2018-08-04T09:47:02.598Z,27.90
2018-08-04T09:49:37.082Z,28.00
2018-08-04T09:52:11.266Z,27.80
2018-08-04T09:54:45.590Z,28.00
2018-08-04T09:57:19.778Z,28.10
2018-08-04T09:59:54.177Z,28.40
2018-08-04T10:02:28.437Z,28.50
2018-08-04T10:05:02.634Z,28.50
2018-08-04T10:07:37.030Z,28.50
2018-08-04T10:10:11.323Z,28.70
2018-08-04T10:12:45.734Z,28.90
2018-08-04T10:17:54.228Z,29.20
2018-08-04T10:20:28.497Z,29.20
2018-08-04T10:23:02.798Z,29.10
2018-08-04T10:25:37.163Z,29.30
2018-08-04T10:28:11.502Z,29.00
2018-08-04T10:30:45.911Z,29.30
2018-08-04T10:33:20.166Z,29.50
2018-08-04T10:35:54.642Z,29.50
2018-08-04T10:38:28.904Z,29.60
2018-08-04T10:41:03.162Z,29.90
2018-08-04T10:43:37.611Z,29.90
2018-08-04T10:46:11.799Z,30.00
2018-08-04T10:48:46.165Z,30.10
2018-08-04T10:51:20.510Z,30.20
2018-08-04T10:53:54.834Z,30.40
2018-08-04T10:56:29.220Z,30.40
2018-08-04T11:01:37.534Z,30.50
2018-08-04T11:04:11.826Z,30.30
2018-08-04T11:06:46.015Z,30.20
2018-08-04T11:09:20.423Z,30.40
2018-08-04T11:11:54.614Z,30.70
2018-08-04T11:14:28.877Z,30.70
2018-08-04T11:17:03.110Z,30.90
2018-08-04T11:19:37.421Z,31.00
2018-08-04T11:22:11.559Z,31.20
2018-08-04T11:24:45.926Z,31.20
2018-08-04T11:27:20.146Z,31.20
2018-08-04T11:29:54.404Z,31.40
2018-08-04T11:32:28.697Z,31.50
2018-08-04T11:37:36.976Z,31.60
2018-08-04T11:40:11.345Z,31.90
2018-08-04T11:42:45.701Z,32.10
2018-08-04T11:45:19.858Z,31.90
2018-08-04T11:47:54.106Z,31.90
2018-08-04T11:50:28.571Z,31.90
2018-08-04T11:53:02.884Z,31.80
2018-08-04T11:55:37.050Z,31.90
2018-08-04T11:58:11.330Z,32.00
2018-08-04T12:00:45.760Z,32.30
2018-08-04T12:03:20.302Z,32.10
2018-08-04T12:05:54.738Z,32.20
2018-08-04T12:08:29.014Z,32.50
2018-08-04T12:11:03.359Z,32.80
2018-08-04T12:13:37.786Z,32.80
2018-08-04T12:16:12.078Z,33.00
2018-08-04T12:18:46.286Z,33.20
2018-08-04T12:21:20.542Z,33.20
2018-08-04T12:23:54.958Z,33.30
2018-08-04T12:26:29.370Z,33.00
2018-08-04T12:29:03.751Z,32.80
2018-08-04T12:31:37.902Z,33.10
2018-08-04T12:34:12.179Z,33.20
2018-08-04T12:36:46.438Z,32.90
2018-08-04T12:39:20.819Z,32.80
2018-08-04T12:41:55.074Z,32.90
2018-08-04T12:44:29.346Z,33.50
2018-08-04T12:47:03.684Z,33.70
2018-08-04T12:49:37.949Z,33.70
2018-08-04T12:52:12.258Z,33.80
2018-08-04T12:54:46.528Z,34.00
2018-08-04T12:57:21.271Z,33.50
2018-08-04T12:59:55.501Z,33.60
2018-08-04T13:02:29.931Z,33.80
2018-08-04T13:05:04.985Z,33.60
2018-08-04T13:07:39.183Z,33.30
2018-08-04T13:10:13.563Z,32.80
2018-08-04T13:12:47.741Z,32.00
2018-08-04T13:15:22.093Z,32.50
2018-08-04T13:17:56.374Z,32.70
2018-08-04T13:20:30.726Z,32.80
2018-08-04T13:23:05.046Z,32.60
2018-08-04T13:25:39.361Z,32.30
2018-08-04T13:28:13.738Z,32.70
2018-08-04T13:30:48.188Z,33.10
2018-08-04T13:33:22.418Z,33.20
2018-08-04T13:35:56.695Z,32.40
2018-08-04T13:38:31.089Z,32.20
2018-08-04T13:41:05.406Z,33.20
2018-08-04T13:43:39.830Z,33.70
2018-08-04T13:46:14.063Z,33.80
2018-08-04T13:48:48.348Z,33.90
2018-08-04T13:51:22.578Z,32.80
2018-08-04T13:53:56.878Z,33.10
2018-08-04T13:56:31.266Z,33.30
2018-08-04T13:59:05.501Z,33.30
2018-08-04T14:01:39.863Z,32.90
2018-08-04T14:04:14.059Z,32.80
2018-08-04T14:06:48.440Z,32.80
2018-08-04T14:09:22.759Z,33.00
2018-08-04T14:11:57.219Z,33.50
2018-08-04T14:14:31.462Z,32.70
2018-08-04T14:17:05.839Z,33.30
2018-08-04T14:19:40.255Z,33.50
2018-08-04T14:22:14.513Z,33.10
2018-08-04T14:24:48.834Z,33.20
2018-08-04T14:27:23.210Z,33.70
2018-08-04T14:29:57.468Z,34.00
2018-08-04T14:32:31.736Z,34.40
2018-08-04T14:35:06.375Z,34.60
2018-08-04T14:37:40.599Z,34.40
2018-08-04T14:40:14.875Z,34.00
2018-08-04T14:45:23.545Z,34.40
2018-08-04T14:47:57.773Z,34.30
2018-08-04T14:50:32.094Z,34.00
2018-08-04T14:53:06.345Z,34.50
2018-08-04T14:55:40.522Z,34.30
2018-08-04T14:58:14.902Z,34.50
2018-08-04T15:00:49.234Z,34.70
2018-08-04T15:03:23.590Z,34.80
2018-08-04T15:06:03.054Z,34.60
2018-08-04T15:08:37.255Z,34.80
2018-08-04T15:11:11.798Z,34.90
2018-08-04T15:13:45.946Z,35.20
2018-08-04T15:16:20.238Z,34.30
2018-08-04T15:18:54.554Z,34.90
2018-08-04T15:21:28.853Z,34.90
2018-08-04T15:24:04.114Z,34.40
2018-08-04T15:26:38.582Z,34.80
2018-08-04T15:29:12.934Z,34.90
2018-08-04T15:31:47.216Z,34.60
2018-08-04T15:34:21.604Z,33.50
2018-08-04T15:36:55.759Z,34.10
2018-08-04T15:39:30.059Z,34.10
2018-08-04T15:42:04.395Z,33.70
2018-08-04T15:44:38.702Z,33.20
2018-08-04T15:47:12.981Z,33.20
2018-08-04T15:49:47.286Z,33.30
2018-08-04T15:52:21.850Z,33.40
2018-08-04T15:54:56.150Z,33.80
2018-08-04T15:57:30.559Z,33.70
2018-08-04T16:00:05.832Z,33.00
2018-08-04T16:02:40.066Z,32.90
2018-08-04T16:05:14.259Z,32.30
2018-08-04T16:10:22.702Z,32.40
2018-08-04T16:12:57.078Z,32.90
2018-08-04T16:15:31.395Z,33.00
2018-08-04T16:18:05.653Z,33.40
2018-08-04T16:20:39.890Z,33.70
2018-08-04T16:23:14.066Z,33.20
2018-08-04T16:25:48.336Z,32.90
2018-08-04T16:28:22.590Z,32.80
2018-08-04T16:30:56.800Z,32.80
2018-08-04T16:33:31.023Z,32.90
2018-08-04T16:36:05.401Z,32.80
2018-08-04T16:38:39.798Z,32.60
2018-08-04T16:41:14.153Z,32.20
2018-08-04T16:43:48.478Z,32.30
2018-08-04T16:48:56.919Z,32.90
2018-08-04T16:51:31.239Z,32.60
2018-08-04T16:54:05.562Z,32.60
2018-08-04T16:56:39.773Z,32.50
2018-08-04T16:59:14.102Z,32.20
2018-08-04T17:01:48.387Z,32.10
2018-08-04T17:04:22.674Z,32.00
2018-08-04T17:06:56.974Z,32.00
2018-08-04T17:09:31.275Z,31.70
2018-08-04T17:12:05.515Z,31.60
2018-08-04T17:17:13.862Z,31.90
2018-08-04T17:19:48.166Z,31.80
2018-08-04T17:22:22.462Z,31.90
2018-08-04T17:24:56.831Z,31.80
2018-08-04T17:30:05.187Z,31.40
2018-08-04T17:32:39.455Z,31.30
2018-08-04T17:35:13.759Z,31.10
2018-08-04T17:37:48.062Z,31.00
2018-08-04T17:42:56.378Z,30.90
2018-08-04T17:45:30.676Z,30.90
2018-08-04T17:48:05.002Z,30.70
2018-08-04T17:50:39.318Z,30.50
2018-08-04T17:53:13.544Z,30.40
2018-08-04T17:55:48.012Z,30.40
2018-08-04T17:58:22.310Z,30.50
2018-08-04T18:00:56.530Z,30.40
2018-08-04T18:03:30.811Z,30.40
2018-08-04T18:06:05.275Z,30.10
2018-08-04T18:08:39.562Z,29.90
2018-08-04T18:11:13.859Z,29.80
2018-08-04T18:13:48.169Z,29.60
2018-08-04T18:16:22.404Z,29.40
2018-08-04T18:18:56.635Z,29.40
2018-08-04T18:21:31.014Z,29.50
2018-08-04T18:24:05.423Z,29.30
2018-08-04T18:26:39.587Z,29.30
2018-08-04T18:29:13.794Z,29.20
2018-08-04T18:31:48.118Z,29.20
2018-08-04T18:34:22.375Z,29.10
2018-08-04T18:36:56.610Z,28.90
2018-08-04T18:39:56.061Z,28.90
2018-08-04T18:42:30.383Z,28.80
2018-08-04T18:45:34.976Z,28.80
2018-08-04T18:48:09.208Z,28.60
2018-08-04T18:50:43.526Z,28.60
2018-08-04T18:53:17.701Z,28.70
2018-08-04T18:55:52.006Z,28.40
2018-08-04T18:58:26.288Z,28.30
2018-08-04T19:01:00.666Z,28.30
2018-08-04T19:03:58.133Z,28.20
2018-08-04T19:06:32.498Z,28.10
2018-08-04T19:09:08.378Z,27.90
2018-08-04T19:11:42.709Z,27.90
2018-08-04T19:14:16.946Z,27.60
2018-08-04T19:16:51.395Z,27.70
2018-08-04T19:19:25.572Z,27.30
2018-08-04T19:21:59.865Z,27.40
2018-08-04T19:24:34.191Z,27.50
2018-08-04T19:27:08.377Z,27.50
2018-08-04T19:29:42.689Z,27.40
2018-08-04T19:32:16.865Z,27.30
2018-08-04T19:34:51.129Z,27.30
2018-08-04T19:37:25.435Z,27.20
2018-08-04T19:39:59.749Z,26.80
2018-08-04T19:42:35.058Z,26.60
2018-08-04T19:45:09.345Z,26.50
2018-08-04T19:47:43.779Z,26.60
2018-08-04T19:50:17.946Z,26.50
2018-08-04T19:52:52.283Z,26.40
2018-08-04T19:55:26.849Z,26.30
2018-08-04T19:58:02.225Z,26.30
2018-08-04T20:00:36.587Z,26.30
2018-08-04T20:03:10.810Z,26.30
2018-08-04T20:08:19.278Z,26.20
2018-08-04T20:10:53.556Z,26.20
2018-08-04T20:13:27.724Z,26.10
2018-08-04T20:16:01.910Z,26.00
2018-08-04T20:18:36.328Z,26.00
2018-08-04T20:21:10.593Z,26.00
2018-08-04T20:23:45.076Z,26.00
2018-08-04T20:26:19.384Z,25.80
2018-08-04T20:28:53.899Z,25.70
2018-08-04T20:31:28.206Z,25.70
2018-08-04T20:34:02.429Z,25.70
2018-08-04T20:36:36.867Z,25.60
2018-08-04T20:39:11.361Z,25.40
2018-08-04T20:41:45.504Z,25.30
2018-08-04T20:44:19.744Z,25.20
2018-08-04T20:46:54.128Z,24.90
2018-08-04T20:49:28.341Z,25.10
2018-08-04T20:52:02.522Z,25.20
2018-08-04T20:54:36.800Z,25.00
2018-08-04T20:57:11.097Z,24.90
2018-08-04T20:59:45.273Z,25.10
2018-08-04T21:02:19.590Z,25.10
2018-08-04T21:04:53.848Z,25.00
2018-08-04T21:07:28.230Z,24.90
2018-08-04T21:10:02.579Z,24.80
2018-08-04T21:15:11.003Z,24.80
2018-08-04T21:17:45.370Z,24.50
2018-08-04T21:20:19.730Z,24.60
2018-08-04T21:22:54.034Z,24.60
2018-08-04T21:25:28.418Z,24.40
2018-08-04T21:28:02.699Z,24.50
2018-08-04T21:30:37.002Z,24.40
2018-08-04T21:33:11.242Z,24.20
2018-08-04T21:35:45.499Z,24.20
2018-08-04T21:38:19.779Z,24.20
2018-08-04T21:40:54.274Z,24.20
2018-08-04T21:43:28.486Z,24.10
2018-08-04T21:46:02.778Z,23.90
2018-08-04T21:48:36.987Z,23.90
2018-08-04T21:51:11.255Z,24.10
2018-08-04T21:53:45.616Z,24.00
2018-08-04T21:56:19.951Z,23.90
2018-08-04T21:58:54.354Z,24.00
2018-08-04T22:01:28.693Z,24.00
2018-08-04T22:04:02.966Z,23.80
2018-08-04T22:06:45.790Z,23.90
2018-08-04T22:09:23.110Z,23.90
2018-08-04T22:11:57.406Z,23.90
2018-08-04T22:14:31.751Z,23.80
2018-08-04T22:17:06.302Z,23.80
2018-08-04T22:19:40.651Z,23.80
2018-08-04T22:22:15.086Z,23.70
2018-08-04T22:24:49.223Z,23.60
2018-08-04T22:27:23.538Z,23.50
2018-08-04T22:29:57.845Z,23.50
2018-08-04T22:32:32.006Z,23.40
2018-08-04T22:35:06.931Z,23.30
2018-08-04T22:37:41.670Z,23.30
2018-08-04T22:40:16.894Z,23.30
2018-08-04T22:42:51.201Z,23.30
2018-08-04T22:45:46.102Z,23.30
2018-08-04T22:48:21.058Z,23.20
2018-08-04T22:50:55.402Z,23.30
2018-08-04T22:53:29.893Z,23.20
2018-08-04T22:56:04.145Z,23.00
2018-08-04T22:58:38.441Z,23.00
2018-08-04T23:01:12.785Z,23.00
2018-08-04T23:06:21.337Z,22.80
2018-08-04T23:08:55.642Z,22.90
2018-08-04T23:11:29.922Z,22.80
2018-08-04T23:14:04.250Z,22.80
2018-08-04T23:16:38.498Z,22.80
2018-08-04T23:19:12.755Z,22.80
2018-08-04T23:21:47.131Z,22.80
2018-08-04T23:24:21.442Z,22.80
2018-08-04T23:26:55.829Z,22.70
2018-08-04T23:29:30.071Z,22.80
2018-08-04T23:32:04.390Z,22.70
2018-08-04T23:34:38.774Z,22.70
2018-08-04T23:37:12.933Z,22.60
2018-08-04T23:39:47.306Z,22.70
2018-08-04T23:42:21.672Z,22.60
2018-08-04T23:44:56.113Z,22.60
2018-08-04T23:47:30.762Z,22.70
2018-08-04T23:50:05.203Z,22.60
2018-08-04T23:52:39.706Z,22.50
2018-08-04T23:55:13.869Z,22.20
2018-08-04T23:57:48.113Z,22.30
